sensor_id;sensor_type;location;lat;lon;timestamp;pressure;altitude;pressure_sealevel;temperature;humidity
36222;BME280;22266;52.340;4.962;2022-07-22T00:01:04;102185.66;;;17.71;65.67
36222;BME280;22266;52.340;4.962;2022-07-22T00:03:30;102192.53;;;17.74;65.48
36222;BME280;22266;52.340;4.962;2022-07-22T00:05:56;102182.56;;;17.74;65.42
36222;BME280;22266;52.340;4.962;2022-07-22T00:08:23;102186.50;;;17.72;65.05
36222;BME280;22266;52.340;4.962;2022-07-22T00:10:49;102190.69;;;17.68;65.00
36222;BME280;22266;52.340;4.962;2022-07-22T00:13:16;102184.81;;;17.64;65.17
36222;BME280;22266;52.340;4.962;2022-07-22T00:15:42;102192.31;;;17.62;65.38
36222;BME280;22266;52.340;4.962;2022-07-22T00:18:09;102188.16;;;17.66;65.55
36222;BME280;22266;52.340;4.962;2022-07-22T00:20:36;102186.69;;;17.64;65.35
36222;BME280;22266;52.340;4.962;2022-07-22T00:23:02;102186.25;;;17.60;65.68
36222;BME280;22266;52.340;4.962;2022-07-22T00:25:29;102186.47;;;17.59;65.71
36222;BME280;22266;52.340;4.962;2022-07-22T00:27:55;102185.22;;;17.61;65.88
36222;BME280;22266;52.340;4.962;2022-07-22T00:30:22;102183.13;;;17.63;66.33
36222;BME280;22266;52.340;4.962;2022-07-22T00:32:48;102178.31;;;17.65;65.89
36222;BME280;22266;52.340;4.962;2022-07-22T00:35:15;102180.19;;;17.65;65.77
36222;BME280;22266;52.340;4.962;2022-07-22T00:37:41;102189.59;;;17.62;65.42
36222;BME280;22266;52.340;4.962;2022-07-22T00:40:08;102184.34;;;17.54;65.60
36222;BME280;22266;52.340;4.962;2022-07-22T00:42:35;102181.63;;;17.54;65.99
36222;BME280;22266;52.340;4.962;2022-07-22T00:45:02;102186.91;;;17.55;66.06
36222;BME280;22266;52.340;4.962;2022-07-22T00:47:30;102182.72;;;17.60;65.59
36222;BME280;22266;52.340;4.962;2022-07-22T00:49:56;102178.53;;;17.64;65.94
36222;BME280;22266;52.340;4.962;2022-07-22T00:52:23;102165.53;;;17.66;65.93
36222;BME280;22266;52.340;4.962;2022-07-22T00:54:50;102167.00;;;17.68;65.86
36222;BME280;22266;52.340;4.962;2022-07-22T00:57:17;102175.81;;;17.70;65.88
36222;BME280;22266;52.340;4.962;2022-07-22T00:59:44;102174.94;;;17.70;65.80
36222;BME280;22266;52.340;4.962;2022-07-22T01:02:11;102173.09;;;17.70;66.17
36222;BME280;22266;52.340;4.962;2022-07-22T01:04:37;102167.66;;;17.70;66.30
36222;BME280;22266;52.340;4.962;2022-07-22T01:07:04;102176.22;;;17.67;66.09
36222;BME280;22266;52.340;4.962;2022-07-22T01:09:31;102179.78;;;17.68;66.37
36222;BME280;22266;52.340;4.962;2022-07-22T01:11:58;102170.78;;;17.67;66.29
36222;BME280;22266;52.340;4.962;2022-07-22T01:14:25;102169.94;;;17.67;66.25
36222;BME280;22266;52.340;4.962;2022-07-22T01:16:51;102172.66;;;17.67;65.98
36222;BME280;22266;52.340;4.962;2022-07-22T01:19:18;102172.84;;;17.65;65.95
36222;BME280;22266;52.340;4.962;2022-07-22T01:21:46;102170.53;;;17.62;66.43
36222;BME280;22266;52.340;4.962;2022-07-22T01:24:13;102173.25;;;17.62;65.87
36222;BME280;22266;52.340;4.962;2022-07-22T01:26:39;102154.84;;;17.64;66.14
36222;BME280;22266;52.340;4.962;2022-07-22T01:29:07;102162.78;;;17.66;65.92
36222;BME280;22266;52.340;4.962;2022-07-22T01:31:34;102159.47;;;17.64;65.91
36222;BME280;22266;52.340;4.962;2022-07-22T01:34:01;102164.47;;;17.60;66.04
36222;BME280;22266;52.340;4.962;2022-07-22T01:36:28;102166.38;;;17.60;65.86
36222;BME280;22266;52.340;4.962;2022-07-22T01:38:55;102158.19;;;17.53;65.77
36222;BME280;22266;52.340;4.962;2022-07-22T01:41:22;102155.47;;;17.53;65.75
36222;BME280;22266;52.340;4.962;2022-07-22T01:43:49;102158.19;;;17.53;65.90
36222;BME280;22266;52.340;4.962;2022-07-22T01:46:15;102153.56;;;17.53;65.83
36222;BME280;22266;52.340;4.962;2022-07-22T01:48:43;102149.84;;;17.54;65.67
36222;BME280;22266;52.340;4.962;2022-07-22T01:51:10;102145.00;;;17.57;65.69
36222;BME280;22266;52.340;4.962;2022-07-22T01:53:37;102153.59;;;17.60;66.07
36222;BME280;22266;52.340;4.962;2022-07-22T01:56:04;102160.69;;;17.61;66.11
36222;BME280;22266;52.340;4.962;2022-07-22T01:58:36;102154.44;;;17.61;65.92
36222;BME280;22266;52.340;4.962;2022-07-22T02:01:07;102159.84;;;17.54;65.86
36222;BME280;22266;52.340;4.962;2022-07-22T02:03:35;102168.03;;;17.54;66.06
36222;BME280;22266;52.340;4.962;2022-07-22T02:06:02;102157.78;;;17.56;65.97
36222;BME280;22266;52.340;4.962;2022-07-22T02:08:28;102152.94;;;17.58;66.21
36222;BME280;22266;52.340;4.962;2022-07-22T02:11:18;102149.19;;;17.59;65.95
36222;BME280;22266;52.340;4.962;2022-07-22T02:13:52;102151.28;;;17.57;65.90
36222;BME280;22266;52.340;4.962;2022-07-22T02:16:19;102142.28;;;17.57;66.39
36222;BME280;22266;52.340;4.962;2022-07-22T02:18:48;102148.78;;;17.55;66.08
36222;BME280;22266;52.340;4.962;2022-07-22T02:21:14;102149.59;;;17.56;66.15
36222;BME280;22266;52.340;4.962;2022-07-22T02:23:41;102143.09;;;17.57;65.97
36222;BME280;22266;52.340;4.962;2022-07-22T02:26:08;102145.84;;;17.57;66.33
36222;BME280;22266;52.340;4.962;2022-07-22T02:28:35;102140.38;;;17.57;66.39
36222;BME280;22266;52.340;4.962;2022-07-22T02:31:02;102139.56;;;17.57;66.10
36222;BME280;22266;52.340;4.962;2022-07-22T02:33:28;102134.09;;;17.57;66.04
36222;BME280;22266;52.340;4.962;2022-07-22T02:35:57;102137.88;;;17.55;66.13
36222;BME280;22266;52.340;4.962;2022-07-22T02:38:25;102141.44;;;17.56;65.93
36222;BME280;22266;52.340;4.962;2022-07-22T02:40:52;102137.88;;;17.55;65.87
36222;BME280;22266;52.340;4.962;2022-07-22T02:43:18;102133.06;;;17.51;65.92
36222;BME280;22266;52.340;4.962;2022-07-22T02:45:45;102129.91;;;17.47;65.24
36222;BME280;22266;52.340;4.962;2022-07-22T02:48:11;102141.22;;;17.44;65.40
36222;BME280;22266;52.340;4.962;2022-07-22T02:50:38;102132.00;;;17.45;65.71
36222;BME280;22266;52.340;4.962;2022-07-22T02:53:06;102140.38;;;17.44;65.39
36222;BME280;22266;52.340;4.962;2022-07-22T02:55:36;102143.31;;;17.42;64.63
36222;BME280;22266;52.340;4.962;2022-07-22T02:58:08;102145.41;;;17.40;64.81
36222;BME280;22266;52.340;4.962;2022-07-22T03:00:37;102143.53;;;17.41;64.96
36222;BME280;22266;52.340;4.962;2022-07-22T03:03:04;102144.34;;;17.41;65.10
36222;BME280;22266;52.340;4.962;2022-07-22T03:05:32;102148.34;;;17.45;65.08
36222;BME280;22266;52.340;4.962;2022-07-22T03:08:25;102147.94;;;17.48;64.89
36222;BME280;22266;52.340;4.962;2022-07-22T03:10:52;102146.03;;;17.49;64.58
36222;BME280;22266;52.340;4.962;2022-07-22T03:13:21;102149.59;;;17.49;65.20
36222;BME280;22266;52.340;4.962;2022-07-22T03:15:47;102148.56;;;17.50;65.19
36222;BME280;22266;52.340;4.962;2022-07-22T03:18:14;102146.88;;;17.49;65.03
36222;BME280;22266;52.340;4.962;2022-07-22T03:20:41;102150.44;;;17.50;64.72
36222;BME280;22266;52.340;4.962;2022-07-22T03:23:07;102154.00;;;17.50;64.89
36222;BME280;22266;52.340;4.962;2022-07-22T03:25:34;102152.53;;;17.48;64.66
36222;BME280;22266;52.340;4.962;2022-07-22T03:28:01;102150.88;;;17.47;64.18
36222;BME280;22266;52.340;4.962;2022-07-22T03:30:28;102152.75;;;17.46;64.45
36222;BME280;22266;52.340;4.962;2022-07-22T03:32:56;102144.59;;;17.46;64.40
36222;BME280;22266;52.340;4.962;2022-07-22T03:35:24;102146.25;;;17.47;64.56
36222;BME280;22266;52.340;4.962;2022-07-22T03:37:51;102153.16;;;17.50;64.69
36222;BME280;22266;52.340;4.962;2022-07-22T03:40:17;102150.03;;;17.46;64.57
36222;BME280;22266;52.340;4.962;2022-07-22T03:42:44;102146.44;;;17.46;64.34
36222;BME280;22266;52.340;4.962;2022-07-22T03:45:12;102151.69;;;17.47;64.41
36222;BME280;22266;52.340;4.962;2022-07-22T03:47:39;102145.44;;;17.47;64.12
36222;BME280;22266;52.340;4.962;2022-07-22T03:50:06;102146.44;;;17.46;64.09
36222;BME280;22266;52.340;4.962;2022-07-22T03:52:34;102152.53;;;17.48;64.11
36222;BME280;22266;52.340;4.962;2022-07-22T03:55:04;102146.88;;;17.49;63.85
36222;BME280;22266;52.340;4.962;2022-07-22T03:57:31;102146.03;;;17.49;64.26
36222;BME280;22266;52.340;4.962;2022-07-22T04:00:07;102135.16;;;17.49;64.37
36222;BME280;22266;52.340;4.962;2022-07-22T04:02:39;102136.19;;;17.48;64.24
36222;BME280;22266;52.340;4.962;2022-07-22T04:05:11;102135.78;;;17.51;63.72
36222;BME280;22266;52.340;4.962;2022-07-22T04:07:39;102138.50;;;17.51;64.09
36222;BME280;22266;52.340;4.962;2022-07-22T04:10:06;102139.53;;;17.50;64.09
36222;BME280;22266;52.340;4.962;2022-07-22T04:12:39;102132.84;;;17.46;63.93
36222;BME280;22266;52.340;4.962;2022-07-22T04:15:26;102139.34;;;17.45;63.64
36222;BME280;22266;52.340;4.962;2022-07-22T04:17:53;102134.53;;;17.47;63.83
36222;BME280;22266;52.340;4.962;2022-07-22T04:20:19;102137.25;;;17.47;63.83
36222;BME280;22266;52.340;4.962;2022-07-22T04:23:04;102127.59;;;17.44;63.67
36222;BME280;22266;52.340;4.962;2022-07-22T04:25:31;102125.72;;;17.45;63.32
36222;BME280;22266;52.340;4.962;2022-07-22T04:27:57;102129.91;;;17.47;63.24
36222;BME280;22266;52.340;4.962;2022-07-22T04:30:25;102127.81;;;17.49;63.21
36222;BME280;22266;52.340;4.962;2022-07-22T04:32:52;102130.97;;;17.46;63.33
36222;BME280;22266;52.340;4.962;2022-07-22T04:35:19;102133.47;;;17.48;63.38
36222;BME280;22266;52.340;4.962;2022-07-22T04:38:00;102133.47;;;17.48;63.17
36222;BME280;22266;52.340;4.962;2022-07-22T04:40:27;102121.94;;;17.46;63.19
36222;BME280;22266;52.340;4.962;2022-07-22T04:42:54;102126.56;;;17.45;63.11
36222;BME280;22266;52.340;4.962;2022-07-22T04:45:20;102124.25;;;17.49;63.40
36222;BME280;22266;52.340;4.962;2022-07-22T04:47:47;102117.56;;;17.51;63.39
36222;BME280;22266;52.340;4.962;2022-07-22T04:50:13;102121.13;;;17.52;63.00
36222;BME280;22266;52.340;4.962;2022-07-22T04:52:40;102126.56;;;17.52;63.25
36222;BME280;22266;52.340;4.962;2022-07-22T04:55:14;102122.78;;;17.53;62.91
36222;BME280;22266;52.340;4.962;2022-07-22T04:57:41;102123.63;;;17.53;62.64
36222;BME280;22266;52.340;4.962;2022-07-22T05:00:07;102118.81;;;17.55;63.02
36222;BME280;22266;52.340;4.962;2022-07-22T05:02:44;102125.31;;;17.54;62.79
36222;BME280;22266;52.340;4.962;2022-07-22T05:05:11;102131.59;;;17.55;62.73
36222;BME280;22266;52.340;4.962;2022-07-22T05:07:37;102137.25;;;17.53;62.84
36222;BME280;22266;52.340;4.962;2022-07-22T05:10:04;102134.53;;;17.53;62.56
36222;BME280;22266;52.340;4.962;2022-07-22T05:12:31;102136.22;;;17.54;62.61
36222;BME280;22266;52.340;4.962;2022-07-22T05:14:59;102139.56;;;17.57;62.48
36222;BME280;22266;52.340;4.962;2022-07-22T05:17:25;102136.81;;;17.57;61.97
36222;BME280;22266;52.340;4.962;2022-07-22T05:20:06;102136.41;;;17.53;62.34
36222;BME280;22266;52.340;4.962;2022-07-22T05:22:33;102129.69;;;17.49;62.54
36222;BME280;22266;52.340;4.962;2022-07-22T05:25:07;102127.38;;;17.46;61.86
36222;BME280;22266;52.340;4.962;2022-07-22T05:27:33;102138.28;;;17.46;61.75
36222;BME280;22266;52.340;4.962;2022-07-22T05:30:00;102141.22;;;17.44;61.58
36222;BME280;22266;52.340;4.962;2022-07-22T05:32:28;102143.09;;;17.44;61.62
36222;BME280;22266;52.340;4.962;2022-07-22T05:34:58;102148.78;;;17.42;61.24
36222;BME280;22266;52.340;4.962;2022-07-22T05:37:28;102138.91;;;17.41;61.36
36222;BME280;22266;52.340;4.962;2022-07-22T05:39:55;102145.63;;;17.45;61.10
36222;BME280;22266;52.340;4.962;2022-07-22T05:42:21;102139.75;;;17.48;61.35
36222;BME280;22266;52.340;4.962;2022-07-22T05:44:48;102138.50;;;17.51;61.55
36222;BME280;22266;52.340;4.962;2022-07-22T05:47:14;102147.94;;;17.48;61.16
36222;BME280;22266;52.340;4.962;2022-07-22T05:49:41;102141.66;;;17.48;61.03
36222;BME280;22266;52.340;4.962;2022-07-22T05:52:11;102144.38;;;17.48;60.59
36222;BME280;22266;52.340;4.962;2022-07-22T05:54:38;102141.44;;;17.49;60.32
36222;BME280;22266;52.340;4.962;2022-07-22T05:57:06;102154.84;;;17.51;60.44
36222;BME280;22266;52.340;4.962;2022-07-22T05:59:36;102137.69;;;17.50;60.28
36222;BME280;22266;52.340;4.962;2022-07-22T06:02:04;102137.47;;;17.52;60.38
36222;BME280;22266;52.340;4.962;2022-07-22T06:04:40;102149.19;;;17.52;60.83
36222;BME280;22266;52.340;4.962;2022-07-22T06:07:07;102134.53;;;17.53;60.64
36222;BME280;22266;52.340;4.962;2022-07-22T06:09:35;102131.59;;;17.55;60.48
36222;BME280;22266;52.340;4.962;2022-07-22T06:12:01;102136.59;;;17.58;60.31
36222;BME280;22266;52.340;4.962;2022-07-22T06:14:29;102143.31;;;17.62;60.51
36222;BME280;22266;52.340;4.962;2022-07-22T06:16:56;102137.03;;;17.62;60.31
36222;BME280;22266;52.340;4.962;2022-07-22T06:19:22;102138.91;;;17.61;59.89
36222;BME280;22266;52.340;4.962;2022-07-22T06:21:50;102135.59;;;17.59;59.32
36222;BME280;22266;52.340;4.962;2022-07-22T06:24:17;102141.03;;;17.59;59.68
36222;BME280;22266;52.340;4.962;2022-07-22T06:26:43;102141.66;;;17.61;59.89
36222;BME280;22266;52.340;4.962;2022-07-22T06:29:11;102139.56;;;17.63;60.04
36222;BME280;22266;52.340;4.962;2022-07-22T06:31:38;102136.84;;;17.63;60.07
36222;BME280;22266;52.340;4.962;2022-07-22T06:34:04;102142.47;;;17.62;60.23
36222;BME280;22266;52.340;4.962;2022-07-22T06:36:46;102136.19;;;17.61;59.96
36222;BME280;22266;52.340;4.962;2022-07-22T06:39:13;102148.16;;;17.60;60.00
36222;BME280;22266;52.340;4.962;2022-07-22T06:41:57;102149.38;;;17.58;59.13
36222;BME280;22266;52.340;4.962;2022-07-22T06:44:43;102145.00;;;17.57;58.67
36222;BME280;22266;52.340;4.962;2022-07-22T06:47:18;102147.09;;;17.54;58.65
36222;BME280;22266;52.340;4.962;2022-07-22T06:49:44;102142.25;;;17.50;58.26
36222;BME280;22266;52.340;4.962;2022-07-22T06:52:10;102134.53;;;17.47;58.14
36222;BME280;22266;52.340;4.962;2022-07-22T06:54:37;102150.66;;;17.48;58.11
36222;BME280;22266;52.340;4.962;2022-07-22T06:57:04;102144.97;;;17.50;58.46
36222;BME280;22266;52.340;4.962;2022-07-22T06:59:33;102138.72;;;17.56;58.56
36222;BME280;22266;52.340;4.962;2022-07-22T07:02:05;102137.03;;;17.62;58.15
36222;BME280;22266;52.340;4.962;2022-07-22T07:04:36;102133.06;;;17.71;58.27
36222;BME280;22266;52.340;4.962;2022-07-22T07:07:03;102135.56;;;17.66;56.89
36222;BME280;22266;52.340;4.962;2022-07-22T07:09:30;102133.72;;;17.66;57.21
36222;BME280;22266;52.340;4.962;2022-07-22T07:12:06;102136.22;;;17.68;57.18
36222;BME280;22266;52.340;4.962;2022-07-22T07:14:53;102141.03;;;17.72;57.17
36222;BME280;22266;52.340;4.962;2022-07-22T07:17:39;102133.09;;;17.77;56.87
36222;BME280;22266;52.340;4.962;2022-07-22T07:20:09;102130.78;;;17.81;57.07
36222;BME280;22266;52.340;4.962;2022-07-22T07:22:36;102144.81;;;17.85;56.85
36222;BME280;22266;52.340;4.962;2022-07-22T07:25:07;102148.78;;;17.89;56.81
36222;BME280;22266;52.340;4.962;2022-07-22T07:27:51;102145.66;;;17.92;56.70
36222;BME280;22266;52.340;4.962;2022-07-22T07:30:22;102148.78;;;17.89;56.00
36222;BME280;22266;52.340;4.962;2022-07-22T07:32:49;102139.16;;;17.86;56.07
36222;BME280;22266;52.340;4.962;2022-07-22T07:35:15;102143.34;;;17.89;56.06
36222;BME280;22266;52.340;4.962;2022-07-22T07:37:42;102143.78;;;17.92;56.13
36222;BME280;22266;52.340;4.962;2022-07-22T07:40:09;102146.25;;;17.94;55.85
36222;BME280;22266;52.340;4.962;2022-07-22T07:42:35;102142.06;;;17.98;55.53
36222;BME280;22266;52.340;4.962;2022-07-22T07:45:11;102146.28;;;18.00;55.83
36222;BME280;22266;52.340;4.962;2022-07-22T07:47:38;102150.03;;;18.06;55.51
36222;BME280;22266;52.340;4.962;2022-07-22T07:50:06;102142.69;;;18.07;55.85
36222;BME280;22266;52.340;4.962;2022-07-22T07:52:41;102151.50;;;18.09;55.86
36222;BME280;22266;52.340;4.962;2022-07-22T07:55:19;102145.84;;;18.03;55.15
36222;BME280;22266;52.340;4.962;2022-07-22T07:57:47;102143.97;;;18.04;54.80
36222;BME280;22266;52.340;4.962;2022-07-22T08:00:20;102140.00;;;18.00;54.73
36222;BME280;22266;52.340;4.962;2022-07-22T08:02:48;102146.69;;;17.97;54.64
36222;BME280;22266;52.340;4.962;2022-07-22T08:05:16;102147.09;;;18.01;54.40
36222;BME280;22266;52.340;4.962;2022-07-22T08:07:43;102147.31;;;17.99;53.99
36222;BME280;22266;52.340;4.962;2022-07-22T08:10:10;102143.53;;;17.94;54.44
36222;BME280;22266;52.340;4.962;2022-07-22T08:13:02;102140.81;;;18.00;54.77
36222;BME280;22266;52.340;4.962;2022-07-22T08:15:42;102145.41;;;18.07;55.00
36222;BME280;22266;52.340;4.962;2022-07-22T08:18:16;102139.56;;;18.03;53.99
36222;BME280;22266;52.340;4.962;2022-07-22T08:20:43;102139.56;;;18.03;53.94
36222;BME280;22266;52.340;4.962;2022-07-22T08:23:11;102142.50;;;18.08;54.07
36222;BME280;22266;52.340;4.962;2022-07-22T08:25:42;102143.75;;;18.06;53.15
36222;BME280;22266;52.340;4.962;2022-07-22T08:28:09;102138.28;;;18.12;53.51
36222;BME280;22266;52.340;4.962;2022-07-22T08:30:36;102135.75;;;18.17;53.61
36222;BME280;22266;52.340;4.962;2022-07-22T08:33:03;102134.47;;;18.26;53.88
36222;BME280;22266;52.340;4.962;2022-07-22T08:35:29;102138.25;;;18.32;53.18
36222;BME280;22266;52.340;4.962;2022-07-22T08:37:56;102146.44;;;18.32;52.75
36222;BME280;22266;52.340;4.962;2022-07-22T08:40:24;102146.19;;;18.34;52.75
36222;BME280;22266;52.340;4.962;2022-07-22T08:42:51;102138.84;;;18.34;52.67
36222;BME280;22266;52.340;4.962;2022-07-22T08:45:19;102129.19;;;18.38;52.84
36222;BME280;22266;52.340;4.962;2022-07-22T08:47:51;102130.66;;;18.41;52.73
36222;BME280;22266;52.340;4.962;2022-07-22T08:50:21;102126.91;;;18.35;52.74
36222;BME280;22266;52.340;4.962;2022-07-22T08:52:53;102126.28;;;18.40;52.67
36222;BME280;22266;52.340;4.962;2022-07-22T08:55:20;102122.06;;;18.44;52.87
36222;BME280;22266;52.340;4.962;2022-07-22T08:57:50;102122.25;;;18.49;52.47
36222;BME280;22266;52.340;4.962;2022-07-22T09:00:20;102115.28;;;18.60;52.79
36222;BME280;22266;52.340;4.962;2022-07-22T09:02:48;102110.63;;;18.67;52.41
36222;BME280;22266;52.340;4.962;2022-07-22T09:05:16;102112.72;;;18.71;52.29
36222;BME280;22266;52.340;4.962;2022-07-22T09:08:04;102111.91;;;18.64;51.66
36222;BME280;22266;52.340;4.962;2022-07-22T09:10:43;102105.38;;;18.65;51.82
36222;BME280;22266;52.340;4.962;2022-07-22T09:13:35;102105.59;;;18.70;52.25
36222;BME280;22266;52.340;4.962;2022-07-22T09:16:14;102106.44;;;18.71;52.00
36222;BME280;22266;52.340;4.962;2022-07-22T09:18:52;102105.81;;;18.69;51.66
36222;BME280;22266;52.340;4.962;2022-07-22T09:21:41;102105.81;;;18.62;51.21
36222;BME280;22266;52.340;4.962;2022-07-22T09:24:33;102103.72;;;18.71;51.75
36222;BME280;22266;52.340;4.962;2022-07-22T09:27:10;102096.34;;;18.78;51.66
36222;BME280;22266;52.340;4.962;2022-07-22T09:29:51;102106.63;;;18.76;51.18
36222;BME280;22266;52.340;4.962;2022-07-22T09:32:23;102107.88;;;18.80;50.80
36222;BME280;22266;52.340;4.962;2022-07-22T09:35:01;102104.91;;;18.88;51.10
36222;BME280;22266;52.340;4.962;2022-07-22T09:37:30;102105.66;;;18.95;51.40
36222;BME280;22266;52.340;4.962;2022-07-22T09:40:19;102104.19;;;18.99;51.06
36222;BME280;22266;52.340;4.962;2022-07-22T09:42:52;102102.25;;;19.07;51.25
36222;BME280;22266;52.340;4.962;2022-07-22T09:45:20;102104.53;;;19.10;50.99
36222;BME280;22266;52.340;4.962;2022-07-22T09:47:48;102108.09;;;19.10;51.14
36222;BME280;22266;52.340;4.962;2022-07-22T09:50:48;102111.94;;;19.02;50.51
36222;BME280;22266;52.340;4.962;2022-07-22T09:53:21;102110.28;;;18.95;50.80
36222;BME280;22266;52.340;4.962;2022-07-22T09:56:12;102115.94;;;19.00;51.12
36222;BME280;22266;52.340;4.962;2022-07-22T09:58:41;102113.41;;;19.05;51.30
36222;BME280;22266;52.340;4.962;2022-07-22T10:01:30;102110.16;;;19.15;51.22
36222;BME280;22266;52.340;4.962;2022-07-22T10:03:58;102114.94;;;19.26;50.79
36222;BME280;22266;52.340;4.962;2022-07-22T10:06:26;102111.25;;;19.39;50.04
36222;BME280;22266;52.340;4.962;2022-07-22T10:08:53;102114.44;;;19.36;49.74
36222;BME280;22266;52.340;4.962;2022-07-22T10:11:27;102123.91;;;19.33;49.54
36222;BME280;22266;52.340;4.962;2022-07-22T10:13:55;102122.88;;;19.27;50.01
36222;BME280;22266;52.340;4.962;2022-07-22T10:16:22;102118.53;;;19.20;49.97
36222;BME280;22266;52.340;4.962;2022-07-22T10:18:48;102126.72;;;19.20;50.20
36222;BME280;22266;52.340;4.962;2022-07-22T10:21:18;102120.09;;;19.09;49.60
36222;BME280;22266;52.340;4.962;2022-07-22T10:24:11;102127.03;;;19.05;50.18
36222;BME280;22266;52.340;4.962;2022-07-22T10:26:52;102129.34;;;19.08;50.84
36222;BME280;22266;52.340;4.962;2022-07-22T10:29:30;102127.84;;;19.12;50.97
36222;BME280;22266;52.340;4.962;2022-07-22T10:38:10;102113.13;;;19.13;50.92
36222;BME280;22266;52.340;4.962;2022-07-22T10:43:21;102114.66;;;19.02;51.64
36222;BME280;22266;52.340;4.962;2022-07-22T10:50:49;102119.06;;;19.03;51.55
36222;BME280;22266;52.340;4.962;2022-07-22T11:01:06;102114.78;;;19.14;52.13
36222;BME280;22266;52.340;4.962;2022-07-22T11:03:35;102118.09;;;19.23;52.18
36222;BME280;22266;52.340;4.962;2022-07-22T11:08:58;102120.63;;;19.24;51.10
36222;BME280;22266;52.340;4.962;2022-07-22T11:11:48;102118.06;;;19.30;51.19
36222;BME280;22266;52.340;4.962;2022-07-22T11:16:58;102108.97;;;19.36;51.35
36222;BME280;22266;52.340;4.962;2022-07-22T11:19:28;102106.03;;;19.37;51.55
36222;BME280;22266;52.340;4.962;2022-07-22T11:22:14;102095.31;;;19.36;51.13
36222;BME280;22266;52.340;4.962;2022-07-22T11:24:48;102105.84;;;19.32;51.00
36222;BME280;22266;52.340;4.962;2022-07-22T11:27:17;102096.78;;;19.38;51.27
36222;BME280;22266;52.340;4.962;2022-07-22T11:29:48;102090.63;;;19.43;51.94
36222;BME280;22266;52.340;4.962;2022-07-22T11:32:15;102097.38;;;19.40;51.00
36222;BME280;22266;52.340;4.962;2022-07-22T11:34:45;102091.53;;;19.37;51.09
36222;BME280;22266;52.340;4.962;2022-07-22T11:37:14;102085.63;;;19.40;51.24
36222;BME280;22266;52.340;4.962;2022-07-22T11:39:41;102088.53;;;19.45;51.63
36222;BME280;22266;52.340;4.962;2022-07-22T11:42:08;102086.00;;;19.43;51.38
36222;BME280;22266;52.340;4.962;2022-07-22T11:44:38;102085.22;;;19.36;51.65
36222;BME280;22266;52.340;4.962;2022-07-22T11:47:06;102081.88;;;19.34;51.66
36222;BME280;22266;52.340;4.962;2022-07-22T11:49:35;102076.03;;;19.31;51.97
36222;BME280;22266;52.340;4.962;2022-07-22T11:52:09;102073.69;;;19.34;52.09
36222;BME280;22266;52.340;4.962;2022-07-22T11:54:40;102072.88;;;19.34;51.90
36222;BME280;22266;52.340;4.962;2022-07-22T11:57:08;102073.47;;;19.36;52.05
36222;BME280;22266;52.340;4.962;2022-07-22T11:59:35;102078.53;;;19.32;51.62
36222;BME280;22266;52.340;4.962;2022-07-22T12:02:03;102080.50;;;19.25;52.38
36222;BME280;22266;52.340;4.962;2022-07-22T12:04:30;102071.69;;;19.23;52.25
36222;BME280;22266;52.340;4.962;2022-07-22T12:06:58;102077.41;;;19.15;52.40
36222;BME280;22266;52.340;4.962;2022-07-22T12:09:34;102087.91;;;19.18;52.63
36222;BME280;22266;52.340;4.962;2022-07-22T12:12:01;102071.47;;;19.24;52.94
36222;BME280;22266;52.340;4.962;2022-07-22T12:14:30;102070.13;;;19.34;53.06
36222;BME280;22266;52.340;4.962;2022-07-22T12:16:58;102053.09;;;19.38;52.64
36222;BME280;22266;52.340;4.962;2022-07-22T12:19:30;102056.66;;;19.39;52.78
36222;BME280;22266;52.340;4.962;2022-07-22T12:22:05;102045.03;;;19.43;52.91
36222;BME280;22266;52.340;4.962;2022-07-22T12:24:37;102050.06;;;19.46;52.76
36222;BME280;22266;52.340;4.962;2022-07-22T12:27:09;102041.72;;;19.41;52.58
36222;BME280;22266;52.340;4.962;2022-07-22T12:32:16;102043.00;;;19.39;52.85
36222;BME280;22266;52.340;4.962;2022-07-22T12:37:27;102045.84;;;19.50;52.92
36222;BME280;22266;52.340;4.962;2022-07-22T12:39:57;102053.03;;;19.45;52.86
36222;BME280;22266;52.340;4.962;2022-07-22T12:42:26;102039.19;;;19.40;53.18
36222;BME280;22266;52.340;4.962;2022-07-22T12:45:00;102044.22;;;19.43;53.36
36222;BME280;22266;52.340;4.962;2022-07-22T12:47:52;102048.78;;;19.49;52.98
36222;BME280;22266;52.340;4.962;2022-07-22T12:53:04;102061.97;;;19.52;53.13
36222;BME280;22266;52.340;4.962;2022-07-22T12:58:12;102053.13;;;19.57;52.82
36222;BME280;22266;52.340;4.962;2022-07-22T13:00:46;102043.94;;;19.51;52.70
36222;BME280;22266;52.340;4.962;2022-07-22T13:03:13;102051.13;;;19.45;52.62
36222;BME280;22266;52.340;4.962;2022-07-22T13:05:40;102046.28;;;19.47;52.73
36222;BME280;22266;52.340;4.962;2022-07-22T13:08:07;102048.78;;;19.49;52.97
36222;BME280;22266;52.340;4.962;2022-07-22T13:10:35;102046.22;;;19.54;52.88
36222;BME280;22266;52.340;4.962;2022-07-22T13:13:04;102039.84;;;19.60;52.83
36222;BME280;22266;52.340;4.962;2022-07-22T13:15:31;102028.06;;;19.66;53.07
36222;BME280;22266;52.340;4.962;2022-07-22T13:17:57;102025.47;;;19.71;52.82
36222;BME280;22266;52.340;4.962;2022-07-22T13:20:24;102027.75;;;19.74;52.52
36222;BME280;22266;52.340;4.962;2022-07-22T13:22:50;102025.28;;;19.73;52.30
36222;BME280;22266;52.340;4.962;2022-07-22T13:25:17;102024.25;;;19.67;52.11
36222;BME280;22266;52.340;4.962;2022-07-22T13:27:44;102025.78;;;19.63;52.55
36222;BME280;22266;52.340;4.962;2022-07-22T13:30:10;102039.84;;;19.60;52.12
36222;BME280;22266;52.340;4.962;2022-07-22T13:32:39;102042.41;;;19.62;52.17
36222;BME280;22266;52.340;4.962;2022-07-22T13:35:14;102032.50;;;19.61;52.04
36222;BME280;22266;52.340;4.962;2022-07-22T13:37:41;102022.84;;;19.58;51.78
36222;BME280;22266;52.340;4.962;2022-07-22T13:40:08;102034.22;;;19.62;51.88
36222;BME280;22266;52.340;4.962;2022-07-22T13:42:35;102036.09;;;19.61;51.83